createdAt,value
2018-04-01T00:00:31.588Z,99816.19
2018-04-01T00:03:02.285Z,99822.61
2018-04-01T00:05:33.334Z,99818.63
2018-04-01T00:08:03.901Z,99822.91
2018-04-01T00:10:33.957Z,99813.17
2018-04-01T00:13:03.542Z,99820.95
2018-04-01T00:15:34.466Z,99823.71
2018-04-01T00:18:05.455Z,99826.84
2018-04-01T00:20:35.848Z,99830.53
2018-04-01T00:23:06.931Z,99827.83
2018-04-01T00:25:37.489Z,99831.67
2018-04-01T00:28:09.139Z,99836.72
2018-04-01T00:30:40.598Z,99836.27
2018-04-01T00:33:12.537Z,99836.89
2018-04-01T00:35:44.069Z,99838.45
2018-04-01T00:38:15.105Z,99847.03
2018-04-01T00:40:45.848Z,99847.87
2018-04-01T00:43:16.125Z,99846.31
2018-04-01T00:45:45.373Z,99852.89
2018-04-01T00:48:15.618Z,99853.41
2018-04-01T00:50:45.766Z,99857.10
2018-04-01T00:53:20.658Z,99857.11
2018-04-01T00:55:49.718Z,99858.80
2018-04-01T00:58:19.582Z,99856.47
2018-04-01T01:00:54.426Z,99855.36
2018-04-01T01:03:25.410Z,99853.25
2018-04-01T01:06:04.510Z,99858.66
2018-04-01T01:08:34.559Z,99860.48
2018-04-01T01:11:04.252Z,99860.70
2018-04-01T01:13:34.249Z,99865.55
2018-04-01T01:16:04.502Z,99869.60
2018-04-01T01:18:33.619Z,99870.19
2018-04-01T01:21:02.593Z,99866.88
2018-04-01T01:23:31.715Z,99863.75
2018-04-01T01:26:01.362Z,99863.73
2018-04-01T01:28:30.578Z,99865.77
2018-04-01T01:30:59.398Z,99861.48
2018-04-01T01:36:12.708Z,99858.33
2018-04-01T01:38:43.386Z,99865.58
2018-04-01T01:41:13.140Z,99876.39
2018-04-01T01:43:42.568Z,99876.58
2018-04-01T01:46:11.901Z,99882.06
2018-04-01T01:48:41.746Z,99884.12
2018-04-01T01:51:10.700Z,99878.17
2018-04-01T01:53:39.502Z,99883.23
2018-04-01T01:56:08.913Z,99876.55
2018-04-01T01:58:38.294Z,99885.02
2018-04-01T02:01:07.515Z,99883.36
2018-04-01T02:03:36.985Z,99887.92
2018-04-01T02:06:06.427Z,99883.31
2018-04-01T02:08:35.543Z,99888.13
2018-04-01T02:11:05.593Z,99875.73
2018-04-01T02:13:34.894Z,99874.58
2018-04-01T02:16:03.621Z,99879.27
2018-04-01T02:18:33.145Z,99883.91
2018-04-01T02:21:01.769Z,99879.09
2018-04-01T02:23:30.611Z,99882.64
2018-04-01T02:26:01.040Z,99885.78
2018-04-01T02:28:30.287Z,99894.34
2018-04-01T02:30:58.796Z,99896.08
2018-04-01T02:33:27.980Z,99894.41
2018-04-01T02:36:05.342Z,99895.11
2018-04-01T02:38:34.876Z,99892.30
2018-04-01T02:41:04.801Z,99886.59
2018-04-01T02:43:33.966Z,99884.13
2018-04-01T02:46:03.293Z,99881.99
2018-04-01T02:48:32.638Z,99877.44
2018-04-01T02:51:02.107Z,99873.88
2018-04-01T02:53:31.082Z,99880.70
2018-04-01T02:56:00.582Z,99879.28
2018-04-01T02:58:29.244Z,99879.33
2018-04-01T03:01:09.416Z,99878.53
2018-04-01T03:03:38.150Z,99880.81
2018-04-01T03:06:08.273Z,99887.26
2018-04-01T03:08:37.699Z,99879.09
2018-04-01T03:11:08.781Z,99888.86
2018-04-01T03:13:39.352Z,99884.27
2018-04-01T03:16:08.571Z,99884.41
2018-04-01T03:18:37.256Z,99890.48
2018-04-01T03:21:06.527Z,99890.98
2018-04-01T03:23:36.058Z,99887.19
2018-04-01T03:26:04.653Z,99886.15
2018-04-01T03:28:33.687Z,99900.73
2018-04-01T03:31:02.858Z,99893.14
2018-04-01T03:33:31.429Z,99896.59
2018-04-01T03:36:00.050Z,99894.16
2018-04-01T03:38:29.246Z,99901.48
2018-04-01T03:40:57.884Z,99902.84
2018-04-01T03:43:26.594Z,99906.50
2018-04-01T03:45:55.922Z,99916.36
2018-04-01T03:48:25.204Z,99918.23
2018-04-01T03:50:54.145Z,99920.52
2018-04-01T03:53:23.009Z,99915.30
2018-04-01T03:55:51.771Z,99930.84
2018-04-01T03:58:20.442Z,99925.41
2018-04-01T04:00:49.703Z,99928.36
2018-04-01T04:03:18.458Z,99928.97
2018-04-01T04:05:47.270Z,99930.10
2018-04-01T04:08:16.707Z,99930.52
2018-04-01T04:10:45.630Z,99932.27
2018-04-01T04:13:15.852Z,99934.48
2018-04-01T04:15:45.122Z,99939.09
2018-04-01T04:18:13.844Z,99945.23
2018-04-01T04:20:42.696Z,99943.97
2018-04-01T04:23:11.753Z,99948.30
2018-04-01T04:25:40.330Z,99946.62
2018-04-01T04:28:08.829Z,99950.17
2018-04-01T04:30:37.877Z,99949.84
2018-04-01T04:33:06.336Z,99950.73
2018-04-01T04:35:35.079Z,99948.45
2018-04-01T04:38:03.625Z,99951.56
2018-04-01T04:40:32.109Z,99942.39
2018-04-01T04:43:00.582Z,99947.52
2018-04-01T04:45:29.077Z,99953.84
2018-04-01T04:47:59.396Z,99960.03
2018-04-01T04:50:27.971Z,99955.15
2018-04-01T04:52:56.423Z,99958.71
2018-04-01T04:57:58.898Z,99957.17
2018-04-01T05:00:28.122Z,99954.50
2018-04-01T05:02:56.882Z,99958.22
2018-04-01T05:05:25.458Z,99959.45
2018-04-01T05:07:53.936Z,99960.79
2018-04-01T05:10:22.635Z,99964.84
2018-04-01T05:12:51.314Z,99975.39
2018-04-01T05:15:20.640Z,99971.44
2018-04-01T05:17:49.817Z,99973.78
2018-04-01T05:20:20.118Z,99965.39
2018-04-01T05:22:48.922Z,99971.86
2018-04-01T05:25:19.257Z,99972.14
2018-04-01T05:27:48.162Z,99964.88
2018-04-01T05:30:16.948Z,99984.63
2018-04-01T05:32:45.767Z,99986.97
2018-04-01T05:35:14.377Z,99986.70
2018-04-01T05:37:43.159Z,99992.41
2018-04-01T05:40:12.021Z,99998.77
2018-04-01T05:42:59.472Z,100003.33
2018-04-01T05:45:29.527Z,99998.13
2018-04-01T05:47:58.556Z,100001.66
2018-04-01T05:50:27.734Z,100003.05
2018-04-01T05:52:58.334Z,100014.77
2018-04-01T05:55:27.038Z,100015.66
2018-04-01T05:57:56.140Z,99986.34
2018-04-01T06:00:26.388Z,99995.97
2018-04-01T06:02:55.437Z,100021.61
2018-04-01T06:05:24.423Z,100018.83
2018-04-01T06:07:54.186Z,100025.53
2018-04-01T06:10:23.154Z,100027.37
2018-04-01T06:12:52.011Z,100025.89
2018-04-01T06:15:21.410Z,100030.45
2018-04-01T06:17:50.184Z,100036.09
2018-04-01T06:20:18.781Z,100040.91
2018-04-01T06:22:48.088Z,100035.59
2018-04-01T06:25:16.979Z,100046.86
2018-04-01T06:27:46.203Z,100045.05
2018-04-01T06:30:16.644Z,100052.91
2018-04-01T06:32:46.303Z,100052.70
2018-04-01T06:35:14.945Z,100063.51
2018-04-01T06:37:44.209Z,100054.52
2018-04-01T06:40:13.297Z,100056.09
2018-04-01T06:42:42.072Z,100059.72
2018-04-01T06:45:13.396Z,100057.02
2018-04-01T06:47:42.090Z,100064.28
2018-04-01T06:50:11.028Z,100064.41
2018-04-01T06:52:46.560Z,100063.63
2018-04-01T06:55:15.937Z,100065.50
2018-04-01T06:57:45.145Z,100069.64
2018-04-01T07:00:16.283Z,100073.27
2018-04-01T07:02:45.198Z,100079.71
2018-04-01T07:05:14.200Z,100083.58
2018-04-01T07:07:44.041Z,100082.02
2018-04-01T07:10:13.251Z,100088.33
2018-04-01T07:12:41.939Z,100086.00
2018-04-01T07:15:13.405Z,100094.67
2018-04-01T07:17:42.355Z,100098.94
2018-04-01T07:20:11.437Z,100106.34
2018-04-01T07:22:40.581Z,100114.44
2018-04-01T07:25:09.372Z,100118.41
2018-04-01T07:27:38.494Z,100115.83
2018-04-01T07:30:08.481Z,100119.52
2018-04-01T07:32:38.029Z,100119.59
2018-04-01T07:35:07.018Z,100124.21
2018-04-01T07:37:37.554Z,100128.75
2018-04-01T07:40:06.720Z,100134.83
2018-04-01T07:42:35.734Z,100129.03
2018-04-01T07:45:06.417Z,100139.10
2018-04-01T07:47:35.792Z,100135.66
2018-04-01T07:50:05.141Z,100137.72
2018-04-01T07:52:35.122Z,100139.09
2018-04-01T07:55:05.293Z,100137.39
2018-04-01T07:57:43.832Z,100145.97
2018-04-01T08:00:16.144Z,100156.94
2018-04-01T08:02:45.087Z,100163.15
2018-04-01T08:05:14.053Z,100163.34
2018-04-01T08:07:43.539Z,100164.43
2018-04-01T08:10:12.356Z,100167.27
2018-04-01T08:12:41.178Z,100175.36
2018-04-01T08:15:15.495Z,100178.73
2018-04-01T08:17:44.529Z,100182.20
2018-04-01T08:20:13.643Z,100182.42
2018-04-01T08:22:44.188Z,100191.80
2018-04-01T08:25:13.176Z,100194.31
2018-04-01T08:27:42.422Z,100193.06
2018-04-01T08:30:14.773Z,100195.47
2018-04-01T08:32:43.920Z,100200.50
2018-04-01T08:35:12.915Z,100199.61
2018-04-01T08:37:42.151Z,100207.38
2018-04-01T08:40:11.948Z,100202.98
2018-04-01T08:42:41.372Z,100206.97
2018-04-01T08:47:48.570Z,100218.98
2018-04-01T08:50:17.664Z,100222.04
2018-04-01T08:52:46.574Z,100220.78
2018-04-01T08:55:15.548Z,100226.02
2018-04-01T08:57:44.901Z,100236.06
2018-04-01T09:00:16.545Z,100232.28
2018-04-01T09:02:46.075Z,100230.41
2018-04-01T09:05:15.194Z,100247.16
2018-04-01T09:07:44.900Z,100242.83
2018-04-01T09:10:14.345Z,100245.15
2018-04-01T09:12:43.379Z,100256.95
2018-04-01T09:15:15.123Z,100250.16
2018-04-01T09:17:45.067Z,100258.34
2018-04-01T09:20:14.249Z,100261.79
2018-04-01T09:22:43.420Z,100259.74
2018-04-01T09:25:16.359Z,100271.42
2018-04-01T09:27:45.747Z,100275.63
2018-04-01T09:30:16.581Z,100288.56
2018-04-01T09:32:46.523Z,100280.98
2018-04-01T09:35:15.619Z,100289.42
2018-04-01T09:37:46.040Z,100287.52
2018-04-01T09:40:15.301Z,100290.52
2018-04-01T09:42:45.245Z,100293.95
2018-04-01T09:45:20.017Z,100297.70
2018-04-01T09:47:50.150Z,100291.47
2018-04-01T09:50:19.092Z,100299.19
2018-04-01T09:52:50.183Z,100293.66
2018-04-01T09:55:19.992Z,100304.36
2018-04-01T09:57:49.146Z,100313.87
2018-04-01T10:00:25.430Z,100295.09
2018-04-01T10:02:59.712Z,100309.38
2018-04-01T10:05:31.579Z,100315.86
2018-04-01T10:08:05.866Z,100322.25
2018-04-01T10:10:37.346Z,100329.42
2018-04-01T10:13:08.936Z,100331.71
2018-04-01T10:15:41.354Z,100330.20
2018-04-01T10:18:13.014Z,100337.12
2018-04-01T10:20:44.470Z,100340.83
2018-04-01T10:23:16.589Z,100350.83
2018-04-01T10:25:47.851Z,100353.17
2018-04-01T10:28:19.202Z,100350.66
2018-04-01T10:30:51.978Z,100352.00
2018-04-01T10:33:25.941Z,100368.21
2018-04-01T10:36:04.050Z,100364.73
2018-04-01T10:38:35.357Z,100371.36
2018-04-01T10:41:06.664Z,100376.21
2018-04-01T10:43:38.701Z,100349.52
2018-04-01T10:46:11.233Z,100387.64
2018-04-01T10:48:42.518Z,100385.32
2018-04-01T10:51:13.671Z,100393.13
2018-04-01T10:53:50.298Z,100399.16
2018-04-01T10:56:20.374Z,100396.01
2018-04-01T10:58:50.624Z,100408.01
2018-04-01T11:01:20.034Z,100410.87
2018-04-01T11:03:49.246Z,100412.59
2018-04-01T11:06:18.929Z,100413.66
2018-04-01T11:08:47.700Z,100409.69
2018-04-01T11:11:16.602Z,100410.41
2018-04-01T11:13:46.067Z,100420.30
2018-04-01T11:16:14.950Z,100424.62
2018-04-01T11:18:43.896Z,100427.98
2018-04-01T11:21:13.101Z,100435.72
2018-04-01T11:23:42.883Z,100435.17
2018-04-01T11:26:11.816Z,100432.66
2018-04-01T11:28:41.906Z,100437.95
2018-04-01T11:31:11.149Z,100446.72
2018-04-01T11:33:40.425Z,100462.66
2018-04-01T11:36:11.088Z,100451.00
2018-04-01T11:38:40.153Z,100450.30
2018-04-01T11:41:12.082Z,100450.78
2018-04-01T11:43:41.694Z,100448.55
2018-04-01T11:46:11.209Z,100457.73
2018-04-01T11:48:41.014Z,100465.83
2018-04-01T11:51:10.440Z,100471.74
2018-04-01T11:53:39.187Z,100475.31
2018-04-01T11:56:08.089Z,100471.62
2018-04-01T11:58:37.183Z,100475.38
2018-04-01T12:01:06.452Z,100479.05
2018-04-01T12:03:35.542Z,100474.77
2018-04-01T12:06:05.731Z,100473.34
2018-04-01T12:08:35.841Z,100478.73
2018-04-01T12:13:42.229Z,100475.66
2018-04-01T12:16:11.725Z,100475.52
2018-04-01T12:18:42.318Z,100480.13
2018-04-01T12:21:11.933Z,100483.72
2018-04-01T12:23:41.215Z,100478.47
2018-04-01T12:26:10.918Z,100475.01
2018-04-01T12:28:40.551Z,100476.97
2018-04-01T12:31:10.695Z,100480.30
2018-04-01T12:33:39.867Z,100481.36
2018-04-01T12:36:09.269Z,100478.73
2018-04-01T12:38:38.168Z,100486.66
2018-04-01T12:41:07.280Z,100492.86
2018-04-01T12:43:37.103Z,100493.63
2018-04-01T12:46:06.949Z,100491.03
2018-04-01T12:48:36.409Z,100499.94
2018-04-01T12:51:08.000Z,100499.23
2018-04-01T12:53:38.271Z,100495.98
2018-04-01T12:56:18.433Z,100510.90
2018-04-01T12:58:50.416Z,100514.89
2018-04-01T13:01:19.916Z,100516.52
2018-04-01T13:03:49.262Z,100512.95
2018-04-01T13:06:18.145Z,100516.94
2018-04-01T13:08:46.938Z,100511.84
2018-04-01T13:11:19.266Z,100512.78
2018-04-01T13:13:48.827Z,100513.23
2018-04-01T13:16:18.194Z,100509.69
2018-04-01T13:18:48.796Z,100516.45
2018-04-01T13:21:18.471Z,100506.19
2018-04-01T13:23:47.354Z,100508.87
2018-04-01T13:26:17.723Z,100511.05
2018-04-01T13:28:46.806Z,100507.95
2018-04-01T13:31:15.980Z,100508.72
2018-04-01T13:33:44.899Z,100518.54
2018-04-01T13:36:13.863Z,100519.55
2018-04-01T13:38:42.927Z,100519.80
2018-04-01T13:41:12.035Z,100520.11
2018-04-01T13:43:41.513Z,100524.63
2018-04-01T13:46:16.366Z,100522.20
2018-04-01T13:48:45.077Z,100524.32
2018-04-01T13:51:14.639Z,100524.88
2018-04-01T13:53:43.620Z,100528.23
2018-04-01T13:56:12.695Z,100533.81
2018-04-01T13:58:41.495Z,100527.11
2018-04-01T14:03:50.437Z,100530.23
2018-04-01T14:06:19.981Z,100536.09
2018-04-01T14:08:48.898Z,100536.03
2018-04-01T14:11:17.568Z,100535.47
2018-04-01T14:13:46.294Z,100537.50
2018-04-01T14:16:15.872Z,100536.27
2018-04-01T14:18:46.625Z,100542.95
2018-04-01T14:21:15.815Z,100553.59
2018-04-01T14:23:44.771Z,100549.80
2018-04-01T14:26:14.004Z,100556.55
2018-04-01T14:28:42.739Z,100555.08
2018-04-01T14:31:11.992Z,100560.99
2018-04-01T14:33:42.063Z,100569.02
2018-04-01T14:36:12.970Z,100579.27
2018-04-01T14:38:42.028Z,100579.72
2018-04-01T14:41:11.221Z,100592.70
2018-04-01T14:43:40.548Z,100597.04
2018-04-01T14:46:09.561Z,100602.86
2018-04-01T14:48:38.917Z,100611.20
2018-04-01T14:51:08.071Z,100614.52
2018-04-01T14:53:36.926Z,100610.89
2018-04-01T14:56:06.342Z,100609.67
2018-04-01T14:58:35.415Z,100618.06
2018-04-01T15:01:04.879Z,100618.58
2018-04-01T15:03:34.058Z,100623.95
2018-04-01T15:06:03.112Z,100622.89
2018-04-01T15:08:32.083Z,100628.05
2018-04-01T15:11:01.505Z,100622.55
2018-04-01T15:13:30.357Z,100625.23
2018-04-01T15:15:59.934Z,100614.58
2018-04-01T15:18:29.069Z,100627.78
2018-04-01T15:20:57.850Z,100637.61
2018-04-01T15:23:26.712Z,100634.35
2018-04-01T15:25:56.477Z,100632.48
2018-04-01T15:28:25.941Z,100635.38
2018-04-01T15:30:55.442Z,100635.09
2018-04-01T15:33:24.903Z,100637.72
2018-04-01T15:35:54.044Z,100640.16
2018-04-01T15:38:23.391Z,100638.91
2018-04-01T15:40:52.682Z,100640.18
2018-04-01T15:43:22.017Z,100643.99
2018-04-01T15:45:51.196Z,100638.39
2018-04-01T15:48:24.506Z,100651.88
2018-04-01T15:50:53.844Z,100651.19
2018-04-01T15:53:22.773Z,100649.45
2018-04-01T15:55:52.442Z,100660.86
2018-04-01T15:58:22.384Z,100664.63
2018-04-01T16:00:52.515Z,100670.05
2018-04-01T16:03:21.631Z,100668.25
2018-04-01T16:05:52.579Z,100678.86
2018-04-01T16:08:23.213Z,100675.80
2018-04-01T16:10:56.254Z,100681.87
2018-04-01T16:13:25.540Z,100684.67
2018-04-01T16:15:57.237Z,100685.19
2018-04-01T16:18:28.615Z,100692.58
2018-04-01T16:20:58.118Z,100700.59
2018-04-01T16:23:27.546Z,100693.52
2018-04-01T16:25:56.582Z,100705.52
2018-04-01T16:28:26.293Z,100691.45
2018-04-01T16:30:55.790Z,100701.05
2018-04-01T16:33:25.722Z,100706.47
2018-04-01T16:35:54.614Z,100720.80
2018-04-01T16:38:24.224Z,100711.14
2018-04-01T16:40:53.396Z,100716.55
2018-04-01T16:43:22.468Z,100722.16
2018-04-01T16:45:52.564Z,100715.85
2018-04-01T16:48:21.802Z,100720.36
2018-04-01T16:50:50.544Z,100728.02
2018-04-01T16:53:19.626Z,100727.57
2018-04-01T16:55:48.610Z,100723.98
2018-04-01T16:58:18.035Z,100737.08
2018-04-01T17:00:48.169Z,100732.95
2018-04-01T17:03:17.730Z,100733.47
2018-04-01T17:05:47.023Z,100737.08
2018-04-01T17:08:17.437Z,100740.27
2018-04-01T17:10:46.605Z,100748.42
2018-04-01T17:13:15.534Z,100759.13
2018-04-01T17:15:44.826Z,100761.86
2018-04-01T17:18:14.642Z,100763.92
2018-04-01T17:20:44.563Z,100771.62
2018-04-01T17:23:13.898Z,100768.55
2018-04-01T17:25:42.665Z,100769.39
2018-04-01T17:28:11.773Z,100772.64
2018-04-01T17:30:40.923Z,100781.02
2018-04-01T17:33:10.076Z,100786.16
2018-04-01T17:35:49.737Z,100790.14
2018-04-01T17:38:23.059Z,100788.18
2018-04-01T17:40:52.713Z,100794.75
2018-04-01T17:43:21.630Z,100796.44
2018-04-01T17:45:50.988Z,100792.31
2018-04-01T17:48:20.629Z,100793.21
2018-04-01T17:50:49.638Z,100798.83
2018-04-01T17:53:18.909Z,100799.37
2018-04-01T17:55:47.843Z,100804.83
2018-04-01T17:58:16.773Z,100801.05
2018-04-01T18:00:46.281Z,100799.83
2018-04-01T18:03:16.036Z,100808.44
2018-04-01T18:05:45.305Z,100797.82
2018-04-01T18:08:15.727Z,100810.23
2018-04-01T18:10:44.697Z,100809.59
2018-04-01T18:13:13.912Z,100817.27
2018-04-01T18:15:43.026Z,100811.42
2018-04-01T18:18:12.079Z,100816.50
2018-04-01T18:20:41.063Z,100816.01
2018-04-01T18:23:10.405Z,100807.20
2018-04-01T18:25:41.100Z,100820.94
2018-04-01T18:28:10.940Z,100826.27
2018-04-01T18:30:40.998Z,100824.14
2018-04-01T18:33:09.900Z,100830.80
2018-04-01T18:35:39.125Z,100821.91
2018-04-01T18:38:10.091Z,100829.62
2018-04-01T18:40:39.379Z,100830.88
2018-04-01T18:43:08.159Z,100835.96
2018-04-01T18:45:37.497Z,100839.16
2018-04-01T18:48:06.280Z,100851.66
2018-04-01T18:50:35.126Z,100851.51
2018-04-01T18:53:05.567Z,100854.53
2018-04-01T18:55:34.391Z,100853.20
2018-04-01T18:58:03.899Z,100848.02
2018-04-01T19:00:33.838Z,100859.48
2018-04-01T19:03:04.979Z,100864.05
2018-04-01T19:05:36.779Z,100859.53
2018-04-01T19:08:05.726Z,100869.67
2018-04-01T19:10:34.705Z,100871.48
2018-04-01T19:13:03.870Z,100886.34
2018-04-01T19:15:33.380Z,100878.84
2018-04-01T19:18:06.974Z,100892.94
2018-04-01T19:20:37.725Z,100905.56
2018-04-01T19:23:10.337Z,100898.61
2018-04-01T19:25:41.958Z,100892.27
2018-04-01T19:28:14.597Z,100873.64
2018-04-01T19:30:46.675Z,100893.34
2018-04-01T19:33:17.980Z,100887.91
2018-04-01T19:35:49.306Z,100898.90
2018-04-01T19:38:20.965Z,100889.45
2018-04-01T19:40:51.893Z,100896.34
2018-04-01T19:43:23.385Z,100895.88
2018-04-01T19:45:55.819Z,100900.88
2018-04-01T19:48:26.535Z,100898.05
2018-04-01T19:50:57.676Z,100902.20
2018-04-01T19:53:31.559Z,100900.70
2018-04-01T19:56:03.380Z,100902.95
2018-04-01T19:58:38.258Z,100911.75
2018-04-01T20:01:10.406Z,100906.93
2018-04-01T20:03:41.806Z,100913.95
2018-04-01T20:06:12.964Z,100914.37
2018-04-01T20:08:43.957Z,100906.88
2018-04-01T20:11:15.151Z,100912.41
2018-04-01T20:13:46.593Z,100908.48
2018-04-01T20:16:19.588Z,100919.11
2018-04-01T20:18:50.840Z,100905.02
2018-04-01T20:21:21.988Z,100910.45
2018-04-01T20:23:54.427Z,100899.70
2018-04-01T20:26:26.024Z,100910.12
2018-04-01T20:28:57.446Z,100907.72
2018-04-01T20:31:29.058Z,100900.98
2018-04-01T20:34:00.235Z,100903.98
2018-04-01T20:36:33.702Z,100915.45
2018-04-01T20:39:05.209Z,100917.36
2018-04-01T20:41:36.767Z,100916.44
2018-04-01T20:44:09.661Z,100894.46
2018-04-01T20:46:41.548Z,100922.34
2018-04-01T20:49:12.677Z,100919.68
2018-04-01T20:51:44.315Z,100917.14
2018-04-01T20:54:15.388Z,100917.02
2018-04-01T20:56:46.796Z,100918.84
2018-04-01T20:59:18.126Z,100925.27
2018-04-01T21:01:50.309Z,100915.77
2018-04-01T21:04:21.381Z,100921.39
2018-04-01T21:06:52.589Z,100919.86
2018-04-01T21:09:24.372Z,100918.36
2018-04-01T21:11:55.787Z,100914.11
2018-04-01T21:14:27.725Z,100920.00
2018-04-01T21:16:59.490Z,100908.84
2018-04-01T21:19:30.710Z,100918.37
2018-04-01T21:22:03.340Z,100922.60
2018-04-01T21:24:36.303Z,100917.55
2018-04-01T21:27:07.643Z,100928.75
2018-04-01T21:29:39.600Z,100924.09
2018-04-01T21:32:11.785Z,100918.48
2018-04-01T21:34:43.037Z,100928.98
2018-04-01T21:37:14.469Z,100925.69
2018-04-01T21:39:45.880Z,100924.47
2018-04-01T21:42:17.667Z,100929.42
2018-04-01T21:44:49.063Z,100928.45
2018-04-01T21:47:20.823Z,100932.66
2018-04-01T21:49:52.973Z,100937.33
2018-04-01T21:52:24.722Z,100930.63
2018-04-01T21:54:55.968Z,100936.64
2018-04-01T21:57:28.145Z,100936.91
2018-04-01T21:59:59.695Z,100932.55
2018-04-01T22:02:31.019Z,100930.63
2018-04-01T22:05:02.411Z,100928.36
2018-04-01T22:07:34.106Z,100929.89
2018-04-01T22:10:11.627Z,100931.92
2018-04-01T22:12:42.703Z,100926.56
2018-04-01T22:15:17.051Z,100924.09
2018-04-01T22:17:48.100Z,100932.13
2018-04-01T22:20:20.138Z,100924.16
2018-04-01T22:22:59.706Z,100922.83
2018-04-01T22:25:30.957Z,100919.44
2018-04-01T22:28:02.153Z,100916.14
2018-04-01T22:30:34.529Z,100922.83
2018-04-01T22:33:05.763Z,100922.83
2018-04-01T22:35:37.734Z,100927.97
2018-04-01T22:38:09.222Z,100928.56
2018-04-01T22:40:41.151Z,100928.87
2018-04-01T22:43:12.228Z,100926.39
2018-04-01T22:45:43.294Z,100922.72
2018-04-01T22:48:14.316Z,100922.94
2018-04-01T22:50:45.635Z,100921.30
2018-04-01T22:53:16.666Z,100917.52
2018-04-01T22:55:48.509Z,100921.08
2018-04-01T22:58:20.347Z,100914.81
2018-04-01T23:00:52.775Z,100915.17
2018-04-01T23:03:25.190Z,100909.02
2018-04-01T23:05:56.802Z,100908.00
2018-04-01T23:08:29.524Z,100904.55
2018-04-01T23:11:01.054Z,100897.75
2018-04-01T23:13:32.500Z,100904.39
2018-04-01T23:16:04.761Z,100912.05
2018-04-01T23:18:36.864Z,100914.59
2018-04-01T23:21:08.617Z,100917.88
2018-04-01T23:23:40.211Z,100914.99
2018-04-01T23:26:11.726Z,100910.09
2018-04-01T23:28:43.832Z,100914.73
2018-04-01T23:31:16.303Z,100911.47
2018-04-01T23:33:47.658Z,100911.52
2018-04-01T23:36:20.451Z,100909.61
2018-04-01T23:38:52.200Z,100908.45
2018-04-01T23:41:24.016Z,100919.05
2018-04-01T23:43:57.595Z,100912.28
2018-04-01T23:46:29.424Z,100916.19
2018-04-01T23:49:00.852Z,100912.09
2018-04-01T23:51:32.810Z,100913.66
2018-04-01T23:54:06.464Z,100915.33
2018-04-01T23:56:41.392Z,100906.59
2018-04-01T23:59:12.808Z,100901.02
